sensor_id;sensor_type;location;lat;lon;timestamp;temperature;humidity
28654;DHT22;24320;56.980;24.336;2022-09-21T00:01:20;9.80;99.90
28654;DHT22;24320;56.980;24.336;2022-09-21T00:03:53;9.80;99.90
28654;DHT22;24320;56.980;24.336;2022-09-21T00:06:22;9.80;99.90
28654;DHT22;24320;56.980;24.336;2022-09-21T00:08:50;9.80;99.90
28654;DHT22;24320;56.980;24.336;2022-09-21T00:11:20;9.80;99.90
28654;DHT22;24320;56.980;24.336;2022-09-21T00:13:54;9.80;99.90
28654;DHT22;24320;56.980;24.336;2022-09-21T00:16:25;9.80;99.90
28654;DHT22;24320;56.980;24.336;2022-09-21T00:18:52;9.80;99.90
28654;DHT22;24320;56.980;24.336;2022-09-21T00:21:19;9.80;99.90
28654;DHT22;24320;56.980;24.336;2022-09-21T00:23:47;9.90;99.90
28654;DHT22;24320;56.980;24.336;2022-09-21T00:26:19;9.90;99.90
28654;DHT22;24320;56.980;24.336;2022-09-21T00:28:50;9.80;99.90
28654;DHT22;24320;56.980;24.336;2022-09-21T00:31:20;9.90;99.90
28654;DHT22;24320;56.980;24.336;2022-09-21T00:33:48;9.80;99.90
28654;DHT22;24320;56.980;24.336;2022-09-21T00:36:19;9.90;99.90
28654;DHT22;24320;56.980;24.336;2022-09-21T00:38:54;9.90;99.90
28654;DHT22;24320;56.980;24.336;2022-09-21T00:41:23;9.90;99.90
28654;DHT22;24320;56.980;24.336;2022-09-21T00:46:46;9.90;99.90
28654;DHT22;24320;56.980;24.336;2022-09-21T00:49:16;9.90;99.90
28654;DHT22;24320;56.980;24.336;2022-09-21T00:51:46;9.90;99.90
28654;DHT22;24320;56.980;24.336;2022-09-21T00:54:24;9.90;99.90
28654;DHT22;24320;56.980;24.336;2022-09-21T00:56:54;9.90;99.90
28654;DHT22;24320;56.980;24.336;2022-09-21T00:59:21;9.90;99.90
28654;DHT22;24320;56.980;24.336;2022-09-21T01:01:55;9.90;99.90
28654;DHT22;24320;56.980;24.336;2022-09-21T01:04:24;9.90;99.90
28654;DHT22;24320;56.980;24.336;2022-09-21T01:06:55;9.90;99.90
28654;DHT22;24320;56.980;24.336;2022-09-21T01:09:22;9.90;99.90
28654;DHT22;24320;56.980;24.336;2022-09-21T01:12:08;9.90;99.90
28654;DHT22;24320;56.980;24.336;2022-09-21T01:20:24;9.90;99.90
28654;DHT22;24320;56.980;24.336;2022-09-21T01:23:14;9.90;99.90
28654;DHT22;24320;56.980;24.336;2022-09-21T01:31:00;9.80;99.90
28654;DHT22;24320;56.980;24.336;2022-09-21T01:33:35;9.80;99.90
28654;DHT22;24320;56.980;24.336;2022-09-21T01:36:08;9.80;99.90
28654;DHT22;24320;56.980;24.336;2022-09-21T01:38:44;9.80;99.90
28654;DHT22;24320;56.980;24.336;2022-09-21T01:41:15;9.80;99.90
28654;DHT22;24320;56.980;24.336;2022-09-21T01:43:52;9.90;99.90
28654;DHT22;24320;56.980;24.336;2022-09-21T01:46:24;9.90;99.90
28654;DHT22;24320;56.980;24.336;2022-09-21T01:48:55;9.90;99.90
28654;DHT22;24320;56.980;24.336;2022-09-21T01:51:26;9.90;99.90
28654;DHT22;24320;56.980;24.336;2022-09-21T01:54:11;9.90;99.90
28654;DHT22;24320;56.980;24.336;2022-09-21T01:56:43;9.90;99.90
28654;DHT22;24320;56.980;24.336;2022-09-21T01:59:25;9.90;99.90
28654;DHT22;24320;56.980;24.336;2022-09-21T02:02:01;9.90;99.90
28654;DHT22;24320;56.980;24.336;2022-09-21T02:04:30;9.80;99.90
28654;DHT22;24320;56.980;24.336;2022-09-21T02:07:00;9.80;99.90
28654;DHT22;24320;56.980;24.336;2022-09-21T02:09:28;9.80;99.90
28654;DHT22;24320;56.980;24.336;2022-09-21T02:11:55;9.80;99.90
28654;DHT22;24320;56.980;24.336;2022-09-21T02:14:24;9.70;99.90
28654;DHT22;24320;56.980;24.336;2022-09-21T02:20:14;9.70;99.90
28654;DHT22;24320;56.980;24.336;2022-09-21T02:25:15;9.70;99.90
28654;DHT22;24320;56.980;24.336;2022-09-21T02:27:52;9.70;99.90
28654;DHT22;24320;56.980;24.336;2022-09-21T02:30:24;9.70;99.90
28654;DHT22;24320;56.980;24.336;2022-09-21T02:35:40;9.80;99.90
28654;DHT22;24320;56.980;24.336;2022-09-21T02:38:26;9.80;99.90
28654;DHT22;24320;56.980;24.336;2022-09-21T02:43:39;9.80;99.90
28654;DHT22;24320;56.980;24.336;2022-09-21T02:46:13;9.70;99.90
28654;DHT22;24320;56.980;24.336;2022-09-21T02:48:48;9.70;99.90
28654;DHT22;24320;56.980;24.336;2022-09-21T02:51:39;9.70;99.90
28654;DHT22;24320;56.980;24.336;2022-09-21T02:54:06;9.70;99.90
28654;DHT22;24320;56.980;24.336;2022-09-21T02:56:34;9.70;99.90
28654;DHT22;24320;56.980;24.336;2022-09-21T02:59:04;9.70;99.90
28654;DHT22;24320;56.980;24.336;2022-09-21T03:01:32;9.70;99.90
28654;DHT22;24320;56.980;24.336;2022-09-21T03:04:00;9.70;99.90
28654;DHT22;24320;56.980;24.336;2022-09-21T03:06:27;9.70;99.90
28654;DHT22;24320;56.980;24.336;2022-09-21T03:08:54;9.60;99.90
28654;DHT22;24320;56.980;24.336;2022-09-21T03:11:23;9.60;99.90
28654;DHT22;24320;56.980;24.336;2022-09-21T03:13:51;9.60;99.90
28654;DHT22;24320;56.980;24.336;2022-09-21T03:16:21;9.60;99.90
28654;DHT22;24320;56.980;24.336;2022-09-21T03:18:52;9.60;99.90
28654;DHT22;24320;56.980;24.336;2022-09-21T03:21:22;9.60;99.90
28654;DHT22;24320;56.980;24.336;2022-09-21T03:23:52;9.50;99.90
28654;DHT22;24320;56.980;24.336;2022-09-21T03:26:22;9.50;99.90
28654;DHT22;24320;56.980;24.336;2022-09-21T03:28:51;9.50;99.90
28654;DHT22;24320;56.980;24.336;2022-09-21T03:31:24;9.40;99.90
28654;DHT22;24320;56.980;24.336;2022-09-21T03:33:53;9.40;99.90
28654;DHT22;24320;56.980;24.336;2022-09-21T03:36:22;9.50;99.90
28654;DHT22;24320;56.980;24.336;2022-09-21T03:38:49;9.40;99.90
28654;DHT22;24320;56.980;24.336;2022-09-21T03:41:16;9.40;99.90
28654;DHT22;24320;56.980;24.336;2022-09-21T03:43:44;9.50;99.90
28654;DHT22;24320;56.980;24.336;2022-09-21T03:46:11;9.50;99.90
28654;DHT22;24320;56.980;24.336;2022-09-21T03:48:38;9.50;99.90
28654;DHT22;24320;56.980;24.336;2022-09-21T03:51:08;9.50;99.90
28654;DHT22;24320;56.980;24.336;2022-09-21T03:53:35;9.50;99.90
28654;DHT22;24320;56.980;24.336;2022-09-21T03:56:02;9.50;99.90
28654;DHT22;24320;56.980;24.336;2022-09-21T03:58:29;9.50;99.90
28654;DHT22;24320;56.980;24.336;2022-09-21T04:01:00;9.50;99.90
28654;DHT22;24320;56.980;24.336;2022-09-21T04:03:28;9.50;99.90
28654;DHT22;24320;56.980;24.336;2022-09-21T04:05:55;9.50;99.90
28654;DHT22;24320;56.980;24.336;2022-09-21T04:08:22;9.50;99.90
28654;DHT22;24320;56.980;24.336;2022-09-21T04:10:49;9.50;99.90
28654;DHT22;24320;56.980;24.336;2022-09-21T04:13:16;9.60;99.90
28654;DHT22;24320;56.980;24.336;2022-09-21T04:15:43;9.60;99.90
28654;DHT22;24320;56.980;24.336;2022-09-21T04:18:10;9.60;99.90
28654;DHT22;24320;56.980;24.336;2022-09-21T04:20:37;9.60;99.90
28654;DHT22;24320;56.980;24.336;2022-09-21T04:23:04;9.60;99.90
28654;DHT22;24320;56.980;24.336;2022-09-21T04:25:32;9.60;99.90
28654;DHT22;24320;56.980;24.336;2022-09-21T04:27:59;9.70;99.90
28654;DHT22;24320;56.980;24.336;2022-09-21T04:30:26;9.70;99.90
28654;DHT22;24320;56.980;24.336;2022-09-21T04:32:53;9.70;99.90
28654;DHT22;24320;56.980;24.336;2022-09-21T04:35:20;9.70;99.90
28654;DHT22;24320;56.980;24.336;2022-09-21T04:37:47;9.70;99.90
28654;DHT22;24320;56.980;24.336;2022-09-21T04:40:14;9.80;99.90
28654;DHT22;24320;56.980;24.336;2022-09-21T04:42:41;9.80;99.90
28654;DHT22;24320;56.980;24.336;2022-09-21T04:45:09;9.80;99.90
28654;DHT22;24320;56.980;24.336;2022-09-21T04:47:36;9.80;99.90
28654;DHT22;24320;56.980;24.336;2022-09-21T04:52:31;9.90;99.90
28654;DHT22;24320;56.980;24.336;2022-09-21T04:54:57;9.90;99.90
28654;DHT22;24320;56.980;24.336;2022-09-21T04:57:24;9.90;99.90
28654;DHT22;24320;56.980;24.336;2022-09-21T04:59:51;9.90;99.90
28654;DHT22;24320;56.980;24.336;2022-09-21T05:02:18;10.00;99.90
28654;DHT22;24320;56.980;24.336;2022-09-21T05:04:45;10.00;99.90
28654;DHT22;24320;56.980;24.336;2022-09-21T05:07:16;10.00;99.90
28654;DHT22;24320;56.980;24.336;2022-09-21T05:09:43;10.10;99.90
28654;DHT22;24320;56.980;24.336;2022-09-21T05:12:32;10.20;99.90
28654;DHT22;24320;56.980;24.336;2022-09-21T05:15:00;10.20;99.90
28654;DHT22;24320;56.980;24.336;2022-09-21T05:17:28;10.30;99.90
28654;DHT22;24320;56.980;24.336;2022-09-21T05:19:55;10.50;99.90
28654;DHT22;24320;56.980;24.336;2022-09-21T05:22:21;10.50;99.90
28654;DHT22;24320;56.980;24.336;2022-09-21T05:24:48;10.60;99.90
28654;DHT22;24320;56.980;24.336;2022-09-21T05:27:15;10.90;99.90
28654;DHT22;24320;56.980;24.336;2022-09-21T05:29:43;11.60;99.90
28654;DHT22;24320;56.980;24.336;2022-09-21T05:38:18;12.70;99.90
28654;DHT22;24320;56.980;24.336;2022-09-21T05:40:45;12.70;99.90
28654;DHT22;24320;56.980;24.336;2022-09-21T05:43:16;12.70;99.90
28654;DHT22;24320;56.980;24.336;2022-09-21T05:45:45;12.60;99.90
28654;DHT22;24320;56.980;24.336;2022-09-21T05:48:34;12.50;99.90
28654;DHT22;24320;56.980;24.336;2022-09-21T05:51:14;12.50;99.90
28654;DHT22;24320;56.980;24.336;2022-09-21T05:57:04;12.40;99.90
28654;DHT22;24320;56.980;24.336;2022-09-21T06:05:13;12.70;99.90
28654;DHT22;24320;56.980;24.336;2022-09-21T06:07:40;13.10;99.90
28654;DHT22;24320;56.980;24.336;2022-09-21T06:10:08;13.40;99.90
28654;DHT22;24320;56.980;24.336;2022-09-21T06:12:35;13.50;99.90
28654;DHT22;24320;56.980;24.336;2022-09-21T06:15:04;13.40;99.90
28654;DHT22;24320;56.980;24.336;2022-09-21T06:17:31;13.40;99.90
28654;DHT22;24320;56.980;24.336;2022-09-21T06:19:59;13.40;99.90
28654;DHT22;24320;56.980;24.336;2022-09-21T06:22:25;13.50;99.90
28654;DHT22;24320;56.980;24.336;2022-09-21T06:24:52;13.50;99.90
28654;DHT22;24320;56.980;24.336;2022-09-21T06:27:19;13.50;99.90
28654;DHT22;24320;56.980;24.336;2022-09-21T06:29:47;13.60;99.90
28654;DHT22;24320;56.980;24.336;2022-09-21T06:32:14;13.70;99.90
28654;DHT22;24320;56.980;24.336;2022-09-21T06:34:41;13.80;99.90
28654;DHT22;24320;56.980;24.336;2022-09-21T06:37:08;14.10;99.90
28654;DHT22;24320;56.980;24.336;2022-09-21T06:39:35;14.30;99.90
28654;DHT22;24320;56.980;24.336;2022-09-21T06:42:02;14.50;99.90
28654;DHT22;24320;56.980;24.336;2022-09-21T06:44:29;14.90;99.90
28654;DHT22;24320;56.980;24.336;2022-09-21T06:46:56;15.30;99.90
28654;DHT22;24320;56.980;24.336;2022-09-21T06:49:23;15.70;99.90
28654;DHT22;24320;56.980;24.336;2022-09-21T06:51:50;15.90;99.90
28654;DHT22;24320;56.980;24.336;2022-09-21T06:54:17;16.00;99.90
28654;DHT22;24320;56.980;24.336;2022-09-21T06:56:44;16.10;99.90
28654;DHT22;24320;56.980;24.336;2022-09-21T06:59:11;16.30;99.90
28654;DHT22;24320;56.980;24.336;2022-09-21T07:01:38;16.50;99.90
28654;DHT22;24320;56.980;24.336;2022-09-21T07:04:05;16.60;99.90
28654;DHT22;24320;56.980;24.336;2022-09-21T07:06:35;16.80;99.90
28654;DHT22;24320;56.980;24.336;2022-09-21T07:09:02;16.80;99.90
28654;DHT22;24320;56.980;24.336;2022-09-21T07:11:49;16.50;99.90
28654;DHT22;24320;56.980;24.336;2022-09-21T07:14:16;16.50;99.90
28654;DHT22;24320;56.980;24.336;2022-09-21T07:16:42;16.70;99.90
28654;DHT22;24320;56.980;24.336;2022-09-21T07:19:10;16.80;99.90
28654;DHT22;24320;56.980;24.336;2022-09-21T07:21:38;16.90;99.90
28654;DHT22;24320;56.980;24.336;2022-09-21T07:24:05;17.30;99.90
28654;DHT22;24320;56.980;24.336;2022-09-21T07:26:38;17.50;99.90
28654;DHT22;24320;56.980;24.336;2022-09-21T07:29:05;17.70;99.90
28654;DHT22;24320;56.980;24.336;2022-09-21T07:31:32;17.70;99.90
28654;DHT22;24320;56.980;24.336;2022-09-21T07:33:59;17.70;99.90
28654;DHT22;24320;56.980;24.336;2022-09-21T07:36:26;17.70;99.90
28654;DHT22;24320;56.980;24.336;2022-09-21T07:38:53;17.20;99.90
28654;DHT22;24320;56.980;24.336;2022-09-21T07:41:20;16.70;99.90
28654;DHT22;24320;56.980;24.336;2022-09-21T07:43:48;16.20;99.90
28654;DHT22;24320;56.980;24.336;2022-09-21T07:46:15;15.80;99.90
28654;DHT22;24320;56.980;24.336;2022-09-21T07:48:42;15.80;99.90
28654;DHT22;24320;56.980;24.336;2022-09-21T07:51:11;15.90;99.90
28654;DHT22;24320;56.980;24.336;2022-09-21T07:53:41;16.00;99.90
28654;DHT22;24320;56.980;24.336;2022-09-21T07:56:11;16.10;99.90
28654;DHT22;24320;56.980;24.336;2022-09-21T07:58:38;16.10;99.90
28654;DHT22;24320;56.980;24.336;2022-09-21T08:01:24;16.00;99.90
28654;DHT22;24320;56.980;24.336;2022-09-21T08:03:53;15.80;99.90
28654;DHT22;24320;56.980;24.336;2022-09-21T08:06:22;15.80;99.90
28654;DHT22;24320;56.980;24.336;2022-09-21T08:08:50;15.90;99.90
28654;DHT22;24320;56.980;24.336;2022-09-21T08:11:23;15.90;99.90
28654;DHT22;24320;56.980;24.336;2022-09-21T08:13:53;16.00;99.90
28654;DHT22;24320;56.980;24.336;2022-09-21T08:16:20;15.90;99.90
28654;DHT22;24320;56.980;24.336;2022-09-21T08:18:47;15.70;99.90
28654;DHT22;24320;56.980;24.336;2022-09-21T08:21:14;15.60;99.90
28654;DHT22;24320;56.980;24.336;2022-09-21T08:23:41;15.70;99.90
28654;DHT22;24320;56.980;24.336;2022-09-21T08:26:13;15.60;99.90
28654;DHT22;24320;56.980;24.336;2022-09-21T08:28:45;15.60;99.90
28654;DHT22;24320;56.980;24.336;2022-09-21T08:31:17;15.60;99.90
28654;DHT22;24320;56.980;24.336;2022-09-21T08:33:46;15.70;99.90
28654;DHT22;24320;56.980;24.336;2022-09-21T08:36:13;16.00;99.90
28654;DHT22;24320;56.980;24.336;2022-09-21T08:38:40;16.20;99.90
28654;DHT22;24320;56.980;24.336;2022-09-21T08:41:23;16.10;99.90
28654;DHT22;24320;56.980;24.336;2022-09-21T08:43:59;16.00;99.90
28654;DHT22;24320;56.980;24.336;2022-09-21T08:46:30;15.80;99.90
28654;DHT22;24320;56.980;24.336;2022-09-21T08:49:07;15.70;99.90
28654;DHT22;24320;56.980;24.336;2022-09-21T08:51:44;15.70;99.90
28654;DHT22;24320;56.980;24.336;2022-09-21T08:54:18;15.70;99.90
28654;DHT22;24320;56.980;24.336;2022-09-21T08:56:46;15.70;99.90
28654;DHT22;24320;56.980;24.336;2022-09-21T08:59:30;15.70;99.90
28654;DHT22;24320;56.980;24.336;2022-09-21T09:08:02;15.40;99.90
28654;DHT22;24320;56.980;24.336;2022-09-21T09:18:52;15.90;99.90
28654;DHT22;24320;56.980;24.336;2022-09-21T09:21:33;15.90;99.90
28654;DHT22;24320;56.980;24.336;2022-09-21T09:24:04;15.70;99.90
28654;DHT22;24320;56.980;24.336;2022-09-21T09:26:35;15.50;99.90
28654;DHT22;24320;56.980;24.336;2022-09-21T09:32:00;15.30;99.90
28654;DHT22;24320;56.980;24.336;2022-09-21T09:34:34;15.20;99.90
28654;DHT22;24320;56.980;24.336;2022-09-21T09:37:18;15.20;99.90
28654;DHT22;24320;56.980;24.336;2022-09-21T09:39:52;15.30;99.90
28654;DHT22;24320;56.980;24.336;2022-09-21T09:48:38;15.20;99.90
28654;DHT22;24320;56.980;24.336;2022-09-21T09:51:11;15.00;99.90
28654;DHT22;24320;56.980;24.336;2022-09-21T09:53:38;15.00;99.90
28654;DHT22;24320;56.980;24.336;2022-09-21T09:56:08;14.90;99.90
28654;DHT22;24320;56.980;24.336;2022-09-21T09:58:47;14.90;99.90
28654;DHT22;24320;56.980;24.336;2022-09-21T10:01:44;15.00;99.90
28654;DHT22;24320;56.980;24.336;2022-09-21T10:04:14;15.00;99.90
28654;DHT22;24320;56.980;24.336;2022-09-21T10:06:43;15.00;99.90
28654;DHT22;24320;56.980;24.336;2022-09-21T10:09:29;15.10;99.90
28654;DHT22;24320;56.980;24.336;2022-09-21T10:12:13;15.20;99.90
28654;DHT22;24320;56.980;24.336;2022-09-21T10:14:47;15.20;99.90
28654;DHT22;24320;56.980;24.336;2022-09-21T10:17:16;15.20;99.90
28654;DHT22;24320;56.980;24.336;2022-09-21T10:19:44;15.30;99.90
28654;DHT22;24320;56.980;24.336;2022-09-21T10:22:18;15.30;99.90
28654;DHT22;24320;56.980;24.336;2022-09-21T10:24:50;15.30;99.90
28654;DHT22;24320;56.980;24.336;2022-09-21T10:27:42;15.40;99.90
28654;DHT22;24320;56.980;24.336;2022-09-21T10:32:56;15.60;99.90
28654;DHT22;24320;56.980;24.336;2022-09-21T10:35:25;15.70;99.90
28654;DHT22;24320;56.980;24.336;2022-09-21T10:38:10;15.60;99.90
28654;DHT22;24320;56.980;24.336;2022-09-21T10:40:38;15.70;99.90
28654;DHT22;24320;56.980;24.336;2022-09-21T10:43:24;15.70;99.90
28654;DHT22;24320;56.980;24.336;2022-09-21T10:45:55;15.70;99.90
28654;DHT22;24320;56.980;24.336;2022-09-21T10:48:24;15.80;99.90
28654;DHT22;24320;56.980;24.336;2022-09-21T10:50:54;16.00;99.90
28654;DHT22;24320;56.980;24.336;2022-09-21T10:53:29;16.20;99.90
28654;DHT22;24320;56.980;24.336;2022-09-21T11:01:46;16.70;99.90
28654;DHT22;24320;56.980;24.336;2022-09-21T11:07:32;16.90;99.90
28654;DHT22;24320;56.980;24.336;2022-09-21T11:15:11;15.60;99.90
28654;DHT22;24320;56.980;24.336;2022-09-21T11:17:48;14.90;99.90
28654;DHT22;24320;56.980;24.336;2022-09-21T11:20:27;14.20;99.90
28654;DHT22;24320;56.980;24.336;2022-09-21T11:23:02;13.90;99.90
28654;DHT22;24320;56.980;24.336;2022-09-21T11:25:52;13.70;99.90
28654;DHT22;24320;56.980;24.336;2022-09-21T11:28:30;13.40;99.90
28654;DHT22;24320;56.980;24.336;2022-09-21T12:00:16;14.20;99.90
28654;DHT22;24320;56.980;24.336;2022-09-21T12:13:40;15.00;99.90
28654;DHT22;24320;56.980;24.336;2022-09-21T12:16:51;15.20;99.90
28654;DHT22;24320;56.980;24.336;2022-09-21T12:24:51;14.60;99.90
28654;DHT22;24320;56.980;24.336;2022-09-21T12:27:29;14.20;99.90
28654;DHT22;24320;56.980;24.336;2022-09-21T12:30:24;13.90;99.90
28654;DHT22;24320;56.980;24.336;2022-09-21T12:33:02;13.70;99.90
28654;DHT22;24320;56.980;24.336;2022-09-21T12:35:35;13.60;99.90
28654;DHT22;24320;56.980;24.336;2022-09-21T12:38:34;13.50;99.90
28654;DHT22;24320;56.980;24.336;2022-09-21T12:44:14;13.40;99.90
28654;DHT22;24320;56.980;24.336;2022-09-21T12:46:47;13.40;99.90
28654;DHT22;24320;56.980;24.336;2022-09-21T12:49:27;13.50;99.90
28654;DHT22;24320;56.980;24.336;2022-09-21T12:52:01;13.60;99.90
28654;DHT22;24320;56.980;24.336;2022-09-21T13:00:21;14.40;99.90
28654;DHT22;24320;56.980;24.336;2022-09-21T13:02:54;14.70;99.90
28654;DHT22;24320;56.980;24.336;2022-09-21T13:05:37;14.80;99.90
28654;DHT22;24320;56.980;24.336;2022-09-21T13:08:12;14.90;99.90
28654;DHT22;24320;56.980;24.336;2022-09-21T13:11:01;15.10;99.90
28654;DHT22;24320;56.980;24.336;2022-09-21T13:16:34;15.40;99.90
28654;DHT22;24320;56.980;24.336;2022-09-21T13:19:02;15.40;99.90
28654;DHT22;24320;56.980;24.336;2022-09-21T13:21:32;15.40;99.90
28654;DHT22;24320;56.980;24.336;2022-09-21T13:24:04;15.20;99.90
28654;DHT22;24320;56.980;24.336;2022-09-21T13:26:39;14.90;99.90
28654;DHT22;24320;56.980;24.336;2022-09-21T13:32:49;14.40;99.90
28654;DHT22;24320;56.980;24.336;2022-09-21T13:34:45;14.20;99.90
28654;DHT22;24320;56.980;24.336;2022-09-21T13:47:54;13.50;99.90
28654;DHT22;24320;56.980;24.336;2022-09-21T13:50:37;13.40;99.90
28654;DHT22;24320;56.980;24.336;2022-09-21T13:53:07;13.30;99.90
28654;DHT22;24320;56.980;24.336;2022-09-21T13:55:54;13.10;99.90
28654;DHT22;24320;56.980;24.336;2022-09-21T13:58:32;13.10;99.90
28654;DHT22;24320;56.980;24.336;2022-09-21T14:01:06;13.00;99.90
28654;DHT22;24320;56.980;24.336;2022-09-21T14:04:03;13.00;99.90
28654;DHT22;24320;56.980;24.336;2022-09-21T14:06:34;13.10;99.90
28654;DHT22;24320;56.980;24.336;2022-09-21T14:09:25;13.30;99.90
28654;DHT22;24320;56.980;24.336;2022-09-21T14:12:00;13.50;99.90
28654;DHT22;24320;56.980;24.336;2022-09-21T14:14:36;13.70;99.90
28654;DHT22;24320;56.980;24.336;2022-09-21T14:17:14;13.90;99.90
28654;DHT22;24320;56.980;24.336;2022-09-21T14:22:32;14.00;99.90
28654;DHT22;24320;56.980;24.336;2022-09-21T14:25:26;14.10;99.90
28654;DHT22;24320;56.980;24.336;2022-09-21T14:27:58;14.00;99.90
28654;DHT22;24320;56.980;24.336;2022-09-21T14:30:32;13.80;99.90
28654;DHT22;24320;56.980;24.336;2022-09-21T14:35:37;13.30;99.90
28654;DHT22;24320;56.980;24.336;2022-09-21T14:38:42;13.00;99.90
28654;DHT22;24320;56.980;24.336;2022-09-21T14:41:21;12.70;99.90
28654;DHT22;24320;56.980;24.336;2022-09-21T14:43:52;12.50;99.90
28654;DHT22;24320;56.980;24.336;2022-09-21T14:51:56;12.20;99.90
28654;DHT22;24320;56.980;24.336;2022-09-21T15:00:21;12.20;99.90
28654;DHT22;24320;56.980;24.336;2022-09-21T15:06:25;12.30;99.90
28654;DHT22;24320;56.980;24.336;2022-09-21T15:12:27;12.70;99.90
28654;DHT22;24320;56.980;24.336;2022-09-21T15:17:28;13.00;99.90
28654;DHT22;24320;56.980;24.336;2022-09-21T15:19:59;13.00;99.90
28654;DHT22;24320;56.980;24.336;2022-09-21T15:22:29;13.00;99.90
28654;DHT22;24320;56.980;24.336;2022-09-21T15:25:02;12.90;99.90
28654;DHT22;24320;56.980;24.336;2022-09-21T15:27:30;12.90;99.90
28654;DHT22;24320;56.980;24.336;2022-09-21T15:30:02;12.80;99.90
28654;DHT22;24320;56.980;24.336;2022-09-21T15:35:05;12.60;99.90
28654;DHT22;24320;56.980;24.336;2022-09-21T15:37:41;12.50;99.90
28654;DHT22;24320;56.980;24.336;2022-09-21T15:40:28;12.40;99.90
28654;DHT22;24320;56.980;24.336;2022-09-21T15:45:37;12.10;99.90
28654;DHT22;24320;56.980;24.336;2022-09-21T15:48:11;12.00;99.90
28654;DHT22;24320;56.980;24.336;2022-09-21T15:50:39;12.00;99.90
28654;DHT22;24320;56.980;24.336;2022-09-21T15:53:16;11.90;99.90
28654;DHT22;24320;56.980;24.336;2022-09-21T15:55:47;11.80;99.90
28654;DHT22;24320;56.980;24.336;2022-09-21T15:58:37;11.70;99.90
28654;DHT22;24320;56.980;24.336;2022-09-21T16:01:14;11.60;99.90
28654;DHT22;24320;56.980;24.336;2022-09-21T16:03:42;11.50;99.90
28654;DHT22;24320;56.980;24.336;2022-09-21T16:06:30;11.40;99.90
28654;DHT22;24320;56.980;24.336;2022-09-21T16:09:42;11.30;99.90
28654;DHT22;24320;56.980;24.336;2022-09-21T16:12:40;11.10;99.90
28654;DHT22;24320;56.980;24.336;2022-09-21T16:17:59;10.90;99.90
28654;DHT22;24320;56.980;24.336;2022-09-21T16:20:44;10.90;99.90
28654;DHT22;24320;56.980;24.336;2022-09-21T16:23:20;10.80;99.90
28654;DHT22;24320;56.980;24.336;2022-09-21T16:25:58;10.80;99.90
28654;DHT22;24320;56.980;24.336;2022-09-21T16:28:39;10.70;99.90
28654;DHT22;24320;56.980;24.336;2022-09-21T16:31:28;10.60;99.90
28654;DHT22;24320;56.980;24.336;2022-09-21T16:33:58;10.50;99.90
28654;DHT22;24320;56.980;24.336;2022-09-21T16:38:58;10.50;99.90
28654;DHT22;24320;56.980;24.336;2022-09-21T16:41:37;10.50;99.90
28654;DHT22;24320;56.980;24.336;2022-09-21T16:44:12;10.50;99.90
28654;DHT22;24320;56.980;24.336;2022-09-21T16:46:49;10.50;99.90
28654;DHT22;24320;56.980;24.336;2022-09-21T16:49:18;10.60;99.90
28654;DHT22;24320;56.980;24.336;2022-09-21T16:51:49;10.60;99.90
28654;DHT22;24320;56.980;24.336;2022-09-21T16:54:17;10.60;99.90
28654;DHT22;24320;56.980;24.336;2022-09-21T16:56:44;10.70;99.90
28654;DHT22;24320;56.980;24.336;2022-09-21T16:59:14;10.70;99.90
28654;DHT22;24320;56.980;24.336;2022-09-21T17:01:52;10.70;99.90
28654;DHT22;24320;56.980;24.336;2022-09-21T17:04:24;10.80;99.90
28654;DHT22;24320;56.980;24.336;2022-09-21T17:06:52;10.80;99.90
28654;DHT22;24320;56.980;24.336;2022-09-21T17:09:30;10.80;99.90
28654;DHT22;24320;56.980;24.336;2022-09-21T17:11:58;10.90;99.90
28654;DHT22;24320;56.980;24.336;2022-09-21T17:14:31;10.90;99.90
28654;DHT22;24320;56.980;24.336;2022-09-21T17:17:12;10.90;99.90
28654;DHT22;24320;56.980;24.336;2022-09-21T17:19:43;10.90;99.90
28654;DHT22;24320;56.980;24.336;2022-09-21T17:22:12;11.00;99.90
28654;DHT22;24320;56.980;24.336;2022-09-21T17:24:46;10.90;99.90
28654;DHT22;24320;56.980;24.336;2022-09-21T17:27:20;10.90;99.90
28654;DHT22;24320;56.980;24.336;2022-09-21T17:29:48;10.90;99.90
28654;DHT22;24320;56.980;24.336;2022-09-21T17:32:17;10.90;99.90
28654;DHT22;24320;56.980;24.336;2022-09-21T17:34:59;10.90;99.90
28654;DHT22;24320;56.980;24.336;2022-09-21T17:37:38;10.90;99.90
28654;DHT22;24320;56.980;24.336;2022-09-21T17:40:05;10.90;99.90
28654;DHT22;24320;56.980;24.336;2022-09-21T17:42:41;11.00;99.90
28654;DHT22;24320;56.980;24.336;2022-09-21T17:47:52;11.00;99.90
28654;DHT22;24320;56.980;24.336;2022-09-21T17:52:49;11.00;99.90
28654;DHT22;24320;56.980;24.336;2022-09-21T17:55:35;10.90;99.90
28654;DHT22;24320;56.980;24.336;2022-09-21T17:58:15;10.90;99.90
28654;DHT22;24320;56.980;24.336;2022-09-21T18:01:03;10.80;99.90
28654;DHT22;24320;56.980;24.336;2022-09-21T18:03:35;10.80;99.90
28654;DHT22;24320;56.980;24.336;2022-09-21T18:06:07;10.70;99.90
28654;DHT22;24320;56.980;24.336;2022-09-21T18:08:36;10.70;99.90
28654;DHT22;24320;56.980;24.336;2022-09-21T18:11:28;10.70;99.90
28654;DHT22;24320;56.980;24.336;2022-09-21T18:25:00;10.80;99.90
28654;DHT22;24320;56.980;24.336;2022-09-21T18:27:29;10.80;99.90
28654;DHT22;24320;56.980;24.336;2022-09-21T18:29:56;10.80;99.90
28654;DHT22;24320;56.980;24.336;2022-09-21T18:43:59;11.00;99.90
28654;DHT22;24320;56.980;24.336;2022-09-21T18:49:01;11.00;99.90
28654;DHT22;24320;56.980;24.336;2022-09-21T18:51:52;11.00;99.90
28654;DHT22;24320;56.980;24.336;2022-09-21T18:54:24;11.00;99.90
28654;DHT22;24320;56.980;24.336;2022-09-21T18:56:54;11.00;99.90
28654;DHT22;24320;56.980;24.336;2022-09-21T18:59:22;11.00;99.90
28654;DHT22;24320;56.980;24.336;2022-09-21T19:01:49;11.00;99.90
28654;DHT22;24320;56.980;24.336;2022-09-21T19:04:17;11.00;99.90
28654;DHT22;24320;56.980;24.336;2022-09-21T19:09:53;11.00;99.90
28654;DHT22;24320;56.980;24.336;2022-09-21T19:24:28;11.00;99.90
28654;DHT22;24320;56.980;24.336;2022-09-21T19:27:09;11.00;99.90
28654;DHT22;24320;56.980;24.336;2022-09-21T19:30:02;11.00;99.90
28654;DHT22;24320;56.980;24.336;2022-09-21T19:32:57;11.00;99.90
28654;DHT22;24320;56.980;24.336;2022-09-21T19:35:26;11.00;99.90
28654;DHT22;24320;56.980;24.336;2022-09-21T19:37:57;11.00;99.90
28654;DHT22;24320;56.980;24.336;2022-09-21T19:40:31;11.00;99.90
28654;DHT22;24320;56.980;24.336;2022-09-21T19:43:43;11.00;99.90
28654;DHT22;24320;56.980;24.336;2022-09-21T19:46:06;10.90;99.90
28654;DHT22;24320;56.980;24.336;2022-09-21T19:48:42;10.90;99.90
28654;DHT22;24320;56.980;24.336;2022-09-21T19:51:17;11.00;99.90